sensor_id;sensor_type;location;lat;lon;timestamp;P1;durP1;ratioP1;P2;durP2;ratioP2
17424;SDS011;8830;50.978;5.058;2022-10-31T00:01:36;23.57;;;14.10;;
17424;SDS011;8830;50.978;5.058;2022-10-31T00:04:04;17.17;;;13.87;;
17424;SDS011;8830;50.978;5.058;2022-10-31T00:06:31;17.77;;;14.03;;
17424;SDS011;8830;50.978;5.058;2022-10-31T00:09:00;18.70;;;13.50;;
17424;SDS011;8830;50.978;5.058;2022-10-31T00:11:28;15.40;;;12.70;;
17424;SDS011;8830;50.978;5.058;2022-10-31T00:13:56;14.50;;;12.97;;
17424;SDS011;8830;50.978;5.058;2022-10-31T00:16:24;16.13;;;13.20;;
17424;SDS011;8830;50.978;5.058;2022-10-31T00:18:52;16.73;;;13.37;;
17424;SDS011;8830;50.978;5.058;2022-10-31T00:21:20;22.50;;;14.43;;
17424;SDS011;8830;50.978;5.058;2022-10-31T00:23:48;14.57;;;12.97;;
17424;SDS011;8830;50.978;5.058;2022-10-31T00:26:17;19.17;;;13.43;;
17424;SDS011;8830;50.978;5.058;2022-10-31T00:28:45;16.03;;;13.70;;
17424;SDS011;8830;50.978;5.058;2022-10-31T00:31:12;14.43;;;13.13;;
17424;SDS011;8830;50.978;5.058;2022-10-31T00:33:40;19.33;;;15.00;;
17424;SDS011;8830;50.978;5.058;2022-10-31T00:36:09;19.80;;;15.80;;
17424;SDS011;8830;50.978;5.058;2022-10-31T00:38:38;19.60;;;15.27;;
17424;SDS011;8830;50.978;5.058;2022-10-31T00:41:05;17.43;;;14.30;;
17424;SDS011;8830;50.978;5.058;2022-10-31T00:43:34;18.60;;;14.70;;
17424;SDS011;8830;50.978;5.058;2022-10-31T00:46:01;20.00;;;14.97;;
17424;SDS011;8830;50.978;5.058;2022-10-31T00:48:29;19.83;;;14.70;;
17424;SDS011;8830;50.978;5.058;2022-10-31T00:50:56;15.40;;;13.47;;
17424;SDS011;8830;50.978;5.058;2022-10-31T00:53:24;13.73;;;12.30;;
17424;SDS011;8830;50.978;5.058;2022-10-31T00:55:51;15.97;;;12.60;;
17424;SDS011;8830;50.978;5.058;2022-10-31T00:58:18;15.17;;;12.07;;
17424;SDS011;8830;50.978;5.058;2022-10-31T01:00:51;14.10;;;12.63;;
17424;SDS011;8830;50.978;5.058;2022-10-31T01:03:20;15.40;;;12.00;;
17424;SDS011;8830;50.978;5.058;2022-10-31T01:05:54;14.20;;;12.67;;
17424;SDS011;8830;50.978;5.058;2022-10-31T01:08:26;14.13;;;12.63;;
17424;SDS011;8830;50.978;5.058;2022-10-31T01:11:03;15.17;;;12.40;;
17424;SDS011;8830;50.978;5.058;2022-10-31T01:13:33;15.90;;;13.47;;
17424;SDS011;8830;50.978;5.058;2022-10-31T01:16:03;19.50;;;12.70;;
17424;SDS011;8830;50.978;5.058;2022-10-31T01:18:33;17.27;;;13.07;;
17424;SDS011;8830;50.978;5.058;2022-10-31T01:21:02;32.27;;;13.07;;
17424;SDS011;8830;50.978;5.058;2022-10-31T01:23:30;16.03;;;12.80;;
17424;SDS011;8830;50.978;5.058;2022-10-31T01:25:58;15.03;;;12.83;;
17424;SDS011;8830;50.978;5.058;2022-10-31T01:28:26;21.30;;;12.83;;
17424;SDS011;8830;50.978;5.058;2022-10-31T01:30:53;16.13;;;13.37;;
17424;SDS011;8830;50.978;5.058;2022-10-31T01:33:22;15.27;;;13.90;;
17424;SDS011;8830;50.978;5.058;2022-10-31T01:35:49;18.73;;;14.33;;
17424;SDS011;8830;50.978;5.058;2022-10-31T01:38:16;16.33;;;12.80;;
17424;SDS011;8830;50.978;5.058;2022-10-31T01:40:43;16.17;;;13.80;;
17424;SDS011;8830;50.978;5.058;2022-10-31T01:43:11;19.07;;;14.47;;
17424;SDS011;8830;50.978;5.058;2022-10-31T01:45:40;14.87;;;13.27;;
17424;SDS011;8830;50.978;5.058;2022-10-31T01:48:10;19.63;;;13.50;;
17424;SDS011;8830;50.978;5.058;2022-10-31T01:50:41;17.10;;;13.27;;
17424;SDS011;8830;50.978;5.058;2022-10-31T01:53:11;15.87;;;13.23;;
17424;SDS011;8830;50.978;5.058;2022-10-31T01:55:39;14.07;;;12.57;;
17424;SDS011;8830;50.978;5.058;2022-10-31T01:58:08;15.13;;;13.47;;
17424;SDS011;8830;50.978;5.058;2022-10-31T02:00:38;15.23;;;12.80;;
17424;SDS011;8830;50.978;5.058;2022-10-31T02:03:06;13.90;;;12.60;;
17424;SDS011;8830;50.978;5.058;2022-10-31T02:05:33;13.83;;;12.53;;
17424;SDS011;8830;50.978;5.058;2022-10-31T02:08:04;15.13;;;13.70;;
17424;SDS011;8830;50.978;5.058;2022-10-31T02:10:34;15.70;;;13.43;;
17424;SDS011;8830;50.978;5.058;2022-10-31T02:13:04;14.47;;;13.17;;
17424;SDS011;8830;50.978;5.058;2022-10-31T02:15:33;15.60;;;14.20;;
17424;SDS011;8830;50.978;5.058;2022-10-31T02:18:03;14.77;;;13.37;;
17424;SDS011;8830;50.978;5.058;2022-10-31T02:20:32;18.70;;;15.50;;
17424;SDS011;8830;50.978;5.058;2022-10-31T02:26:24;20.83;;;16.00;;
17424;SDS011;8830;50.978;5.058;2022-10-31T02:32:11;22.80;;;16.73;;
17424;SDS011;8830;50.978;5.058;2022-10-31T02:34:44;22.37;;;16.77;;
17424;SDS011;8830;50.978;5.058;2022-10-31T02:37:20;21.30;;;17.33;;
17424;SDS011;8830;50.978;5.058;2022-10-31T02:39:56;27.10;;;17.80;;
17424;SDS011;8830;50.978;5.058;2022-10-31T02:42:32;34.13;;;17.67;;
17424;SDS011;8830;50.978;5.058;2022-10-31T02:45:06;34.67;;;18.13;;
17424;SDS011;8830;50.978;5.058;2022-10-31T02:47:39;22.90;;;17.53;;
17424;SDS011;8830;50.978;5.058;2022-10-31T02:50:08;20.50;;;18.33;;
17424;SDS011;8830;50.978;5.058;2022-10-31T02:52:41;21.37;;;18.53;;
17424;SDS011;8830;50.978;5.058;2022-10-31T02:55:09;22.10;;;18.57;;
17424;SDS011;8830;50.978;5.058;2022-10-31T02:57:38;31.07;;;18.53;;
17424;SDS011;8830;50.978;5.058;2022-10-31T03:00:08;23.67;;;18.27;;
17424;SDS011;8830;50.978;5.058;2022-10-31T03:05:34;19.97;;;17.77;;
17424;SDS011;8830;50.978;5.058;2022-10-31T03:08:09;22.47;;;17.80;;
17424;SDS011;8830;50.978;5.058;2022-10-31T03:10:42;19.50;;;17.27;;
17424;SDS011;8830;50.978;5.058;2022-10-31T03:13:16;23.30;;;17.67;;
17424;SDS011;8830;50.978;5.058;2022-10-31T03:15:48;24.03;;;17.43;;
17424;SDS011;8830;50.978;5.058;2022-10-31T03:18:20;19.00;;;16.93;;
17424;SDS011;8830;50.978;5.058;2022-10-31T03:20:54;23.07;;;18.13;;
17424;SDS011;8830;50.978;5.058;2022-10-31T03:23:25;25.90;;;19.70;;
17424;SDS011;8830;50.978;5.058;2022-10-31T03:25:54;29.87;;;19.77;;
17424;SDS011;8830;50.978;5.058;2022-10-31T03:28:23;24.90;;;19.00;;
17424;SDS011;8830;50.978;5.058;2022-10-31T03:30:55;23.33;;;18.40;;
17424;SDS011;8830;50.978;5.058;2022-10-31T03:33:27;21.33;;;18.23;;
17424;SDS011;8830;50.978;5.058;2022-10-31T03:35:58;21.37;;;17.33;;
17424;SDS011;8830;50.978;5.058;2022-10-31T03:38:30;20.90;;;17.27;;
17424;SDS011;8830;50.978;5.058;2022-10-31T03:41:00;18.80;;;16.43;;
17424;SDS011;8830;50.978;5.058;2022-10-31T03:43:32;19.33;;;16.07;;
17424;SDS011;8830;50.978;5.058;2022-10-31T03:46:03;18.73;;;16.07;;
17424;SDS011;8830;50.978;5.058;2022-10-31T03:48:33;18.83;;;14.60;;
17424;SDS011;8830;50.978;5.058;2022-10-31T03:51:04;16.93;;;14.33;;
17424;SDS011;8830;50.978;5.058;2022-10-31T03:53:34;17.30;;;15.50;;
17424;SDS011;8830;50.978;5.058;2022-10-31T03:56:07;16.40;;;14.87;;
17424;SDS011;8830;50.978;5.058;2022-10-31T03:58:40;16.03;;;14.67;;
17424;SDS011;8830;50.978;5.058;2022-10-31T04:01:11;15.67;;;14.10;;
17424;SDS011;8830;50.978;5.058;2022-10-31T04:03:44;15.00;;;13.70;;
17424;SDS011;8830;50.978;5.058;2022-10-31T04:06:12;16.03;;;14.53;;
17424;SDS011;8830;50.978;5.058;2022-10-31T04:08:42;17.43;;;14.07;;
17424;SDS011;8830;50.978;5.058;2022-10-31T04:11:14;15.93;;;14.27;;
17424;SDS011;8830;50.978;5.058;2022-10-31T04:13:45;15.37;;;13.90;;
17424;SDS011;8830;50.978;5.058;2022-10-31T04:16:14;14.37;;;12.97;;
17424;SDS011;8830;50.978;5.058;2022-10-31T04:18:44;17.00;;;13.53;;
17424;SDS011;8830;50.978;5.058;2022-10-31T04:21:12;13.40;;;12.30;;
17424;SDS011;8830;50.978;5.058;2022-10-31T04:23:40;13.87;;;12.60;;
17424;SDS011;8830;50.978;5.058;2022-10-31T04:26:07;16.87;;;13.43;;
17424;SDS011;8830;50.978;5.058;2022-10-31T04:28:36;14.53;;;13.17;;
17424;SDS011;8830;50.978;5.058;2022-10-31T04:31:04;14.13;;;12.40;;
17424;SDS011;8830;50.978;5.058;2022-10-31T04:33:31;14.90;;;13.40;;
17424;SDS011;8830;50.978;5.058;2022-10-31T04:35:59;13.90;;;12.70;;
17424;SDS011;8830;50.978;5.058;2022-10-31T04:38:26;15.03;;;13.53;;
17424;SDS011;8830;50.978;5.058;2022-10-31T04:40:53;13.70;;;12.57;;
17424;SDS011;8830;50.978;5.058;2022-10-31T04:43:20;14.50;;;13.13;;
17424;SDS011;8830;50.978;5.058;2022-10-31T04:45:48;17.67;;;13.40;;
17424;SDS011;8830;50.978;5.058;2022-10-31T04:48:15;14.63;;;12.47;;
17424;SDS011;8830;50.978;5.058;2022-10-31T04:50:42;18.13;;;12.87;;
17424;SDS011;8830;50.978;5.058;2022-10-31T04:53:11;33.10;;;13.20;;
17424;SDS011;8830;50.978;5.058;2022-10-31T04:55:40;14.67;;;13.37;;
17424;SDS011;8830;50.978;5.058;2022-10-31T04:58:07;13.80;;;12.70;;
17424;SDS011;8830;50.978;5.058;2022-10-31T05:00:36;12.93;;;11.83;;
17424;SDS011;8830;50.978;5.058;2022-10-31T05:03:03;15.03;;;13.03;;
17424;SDS011;8830;50.978;5.058;2022-10-31T05:05:30;13.30;;;12.27;;
17424;SDS011;8830;50.978;5.058;2022-10-31T05:07:57;21.00;;;13.33;;
17424;SDS011;8830;50.978;5.058;2022-10-31T05:10:26;14.60;;;13.07;;
17424;SDS011;8830;50.978;5.058;2022-10-31T05:12:56;13.60;;;12.23;;
17424;SDS011;8830;50.978;5.058;2022-10-31T05:15:25;16.33;;;12.53;;
17424;SDS011;8830;50.978;5.058;2022-10-31T05:17:53;19.73;;;11.50;;
17424;SDS011;8830;50.978;5.058;2022-10-31T05:20:21;18.87;;;11.23;;
17424;SDS011;8830;50.978;5.058;2022-10-31T05:22:51;12.63;;;11.43;;
17424;SDS011;8830;50.978;5.058;2022-10-31T05:25:20;11.47;;;10.33;;
17424;SDS011;8830;50.978;5.058;2022-10-31T05:27:51;10.70;;;9.70;;
17424;SDS011;8830;50.978;5.058;2022-10-31T05:30:20;12.07;;;10.87;;
17424;SDS011;8830;50.978;5.058;2022-10-31T05:32:49;11.80;;;10.90;;
17424;SDS011;8830;50.978;5.058;2022-10-31T05:35:19;12.67;;;11.63;;
17424;SDS011;8830;50.978;5.058;2022-10-31T05:37:48;12.60;;;11.40;;
17424;SDS011;8830;50.978;5.058;2022-10-31T05:40:16;12.97;;;11.87;;
17424;SDS011;8830;50.978;5.058;2022-10-31T05:42:44;12.97;;;11.97;;
17424;SDS011;8830;50.978;5.058;2022-10-31T05:45:15;12.90;;;11.80;;
17424;SDS011;8830;50.978;5.058;2022-10-31T05:47:49;12.80;;;11.40;;
17424;SDS011;8830;50.978;5.058;2022-10-31T05:50:17;11.90;;;10.90;;
17424;SDS011;8830;50.978;5.058;2022-10-31T05:52:44;12.93;;;11.67;;
17424;SDS011;8830;50.978;5.058;2022-10-31T05:55:12;13.77;;;12.37;;
17424;SDS011;8830;50.978;5.058;2022-10-31T05:57:39;14.37;;;13.07;;
17424;SDS011;8830;50.978;5.058;2022-10-31T06:00:08;15.00;;;12.73;;
17424;SDS011;8830;50.978;5.058;2022-10-31T06:02:37;14.10;;;12.67;;
17424;SDS011;8830;50.978;5.058;2022-10-31T06:05:04;13.83;;;12.53;;
17424;SDS011;8830;50.978;5.058;2022-10-31T06:07:32;16.73;;;13.43;;
17424;SDS011;8830;50.978;5.058;2022-10-31T06:10:00;18.23;;;14.73;;
17424;SDS011;8830;50.978;5.058;2022-10-31T06:12:29;13.53;;;12.33;;
17424;SDS011;8830;50.978;5.058;2022-10-31T06:14:56;13.87;;;12.43;;
17424;SDS011;8830;50.978;5.058;2022-10-31T06:17:23;14.73;;;13.40;;
17424;SDS011;8830;50.978;5.058;2022-10-31T06:19:53;14.53;;;13.03;;
17424;SDS011;8830;50.978;5.058;2022-10-31T06:22:20;17.00;;;13.87;;
17424;SDS011;8830;50.978;5.058;2022-10-31T06:24:47;15.43;;;13.90;;
17424;SDS011;8830;50.978;5.058;2022-10-31T06:27:14;15.60;;;14.03;;
17424;SDS011;8830;50.978;5.058;2022-10-31T06:29:41;14.40;;;13.20;;
17424;SDS011;8830;50.978;5.058;2022-10-31T06:32:11;18.10;;;14.20;;
17424;SDS011;8830;50.978;5.058;2022-10-31T06:34:38;18.47;;;13.73;;
17424;SDS011;8830;50.978;5.058;2022-10-31T06:37:08;15.87;;;14.27;;
17424;SDS011;8830;50.978;5.058;2022-10-31T06:39:35;18.13;;;15.10;;
17424;SDS011;8830;50.978;5.058;2022-10-31T06:42:03;18.30;;;14.63;;
17424;SDS011;8830;50.978;5.058;2022-10-31T06:44:31;15.67;;;12.93;;
17424;SDS011;8830;50.978;5.058;2022-10-31T06:46:59;14.30;;;12.83;;
17424;SDS011;8830;50.978;5.058;2022-10-31T06:49:26;15.20;;;12.83;;
17424;SDS011;8830;50.978;5.058;2022-10-31T06:51:53;15.17;;;12.80;;
17424;SDS011;8830;50.978;5.058;2022-10-31T06:54:22;18.40;;;13.80;;
17424;SDS011;8830;50.978;5.058;2022-10-31T06:56:49;15.13;;;13.70;;
17424;SDS011;8830;50.978;5.058;2022-10-31T06:59:16;15.70;;;13.90;;
17424;SDS011;8830;50.978;5.058;2022-10-31T07:01:44;13.93;;;12.53;;
17424;SDS011;8830;50.978;5.058;2022-10-31T07:04:11;14.47;;;13.00;;
17424;SDS011;8830;50.978;5.058;2022-10-31T07:06:39;16.70;;;13.23;;
17424;SDS011;8830;50.978;5.058;2022-10-31T07:09:06;18.77;;;14.17;;
17424;SDS011;8830;50.978;5.058;2022-10-31T07:11:35;18.73;;;14.50;;
17424;SDS011;8830;50.978;5.058;2022-10-31T07:14:02;15.60;;;14.00;;
17424;SDS011;8830;50.978;5.058;2022-10-31T07:16:29;22.63;;;13.97;;
17424;SDS011;8830;50.978;5.058;2022-10-31T07:18:56;14.57;;;13.23;;
17424;SDS011;8830;50.978;5.058;2022-10-31T07:21:25;16.67;;;14.17;;
17424;SDS011;8830;50.978;5.058;2022-10-31T07:23:52;15.67;;;13.97;;
17424;SDS011;8830;50.978;5.058;2022-10-31T07:26:22;14.90;;;13.60;;
17424;SDS011;8830;50.978;5.058;2022-10-31T07:28:52;15.47;;;13.97;;
17424;SDS011;8830;50.978;5.058;2022-10-31T07:31:20;15.00;;;13.53;;
17424;SDS011;8830;50.978;5.058;2022-10-31T07:33:47;14.30;;;12.90;;
17424;SDS011;8830;50.978;5.058;2022-10-31T07:36:14;15.57;;;13.33;;
17424;SDS011;8830;50.978;5.058;2022-10-31T07:38:41;16.90;;;14.87;;
17424;SDS011;8830;50.978;5.058;2022-10-31T07:41:08;16.63;;;14.20;;
17424;SDS011;8830;50.978;5.058;2022-10-31T07:43:36;17.37;;;14.53;;
17424;SDS011;8830;50.978;5.058;2022-10-31T07:46:04;16.83;;;15.17;;
17424;SDS011;8830;50.978;5.058;2022-10-31T07:48:31;18.17;;;14.73;;
17424;SDS011;8830;50.978;5.058;2022-10-31T07:50:59;16.50;;;13.73;;
17424;SDS011;8830;50.978;5.058;2022-10-31T07:53:26;14.57;;;12.93;;
17424;SDS011;8830;50.978;5.058;2022-10-31T07:55:54;17.77;;;13.90;;
17424;SDS011;8830;50.978;5.058;2022-10-31T07:58:21;15.13;;;13.67;;
17424;SDS011;8830;50.978;5.058;2022-10-31T08:00:48;15.83;;;14.13;;
17424;SDS011;8830;50.978;5.058;2022-10-31T08:12:57;17.33;;;14.17;;
17424;SDS011;8830;50.978;5.058;2022-10-31T08:18:41;14.17;;;12.77;;
17424;SDS011;8830;50.978;5.058;2022-10-31T08:21:19;14.57;;;13.17;;
17424;SDS011;8830;50.978;5.058;2022-10-31T08:24:00;16.57;;;14.20;;
17424;SDS011;8830;50.978;5.058;2022-10-31T08:26:41;20.50;;;13.40;;
17424;SDS011;8830;50.978;5.058;2022-10-31T08:43:25;13.63;;;12.23;;
17424;SDS011;8830;50.978;5.058;2022-10-31T08:46:03;14.70;;;12.53;;
17424;SDS011;8830;50.978;5.058;2022-10-31T08:48:35;13.53;;;12.23;;
17424;SDS011;8830;50.978;5.058;2022-10-31T08:51:08;18.33;;;14.33;;
17424;SDS011;8830;50.978;5.058;2022-10-31T08:53:57;16.60;;;13.70;;
17424;SDS011;8830;50.978;5.058;2022-10-31T08:56:34;19.33;;;14.37;;
17424;SDS011;8830;50.978;5.058;2022-10-31T08:59:13;18.17;;;13.97;;
17424;SDS011;8830;50.978;5.058;2022-10-31T09:01:49;16.70;;;14.40;;
17424;SDS011;8830;50.978;5.058;2022-10-31T09:04:18;14.87;;;13.37;;
17424;SDS011;8830;50.978;5.058;2022-10-31T09:06:52;17.20;;;14.90;;
17424;SDS011;8830;50.978;5.058;2022-10-31T09:09:21;15.77;;;13.30;;
17424;SDS011;8830;50.978;5.058;2022-10-31T09:11:55;16.30;;;13.13;;
17424;SDS011;8830;50.978;5.058;2022-10-31T09:14:33;15.63;;;13.20;;
17424;SDS011;8830;50.978;5.058;2022-10-31T09:17:06;14.20;;;12.67;;
17424;SDS011;8830;50.978;5.058;2022-10-31T09:19:46;15.67;;;12.83;;
17424;SDS011;8830;50.978;5.058;2022-10-31T09:22:35;15.73;;;12.27;;
17424;SDS011;8830;50.978;5.058;2022-10-31T09:25:07;17.47;;;12.33;;
17424;SDS011;8830;50.978;5.058;2022-10-31T09:34:11;14.30;;;12.73;;
17424;SDS011;8830;50.978;5.058;2022-10-31T09:36:40;16.47;;;12.90;;
17424;SDS011;8830;50.978;5.058;2022-10-31T09:39:22;17.97;;;13.10;;
17424;SDS011;8830;50.978;5.058;2022-10-31T09:41:59;20.87;;;13.70;;
17424;SDS011;8830;50.978;5.058;2022-10-31T09:44:48;18.00;;;14.23;;
17424;SDS011;8830;50.978;5.058;2022-10-31T09:47:26;17.20;;;13.47;;
17424;SDS011;8830;50.978;5.058;2022-10-31T09:50:36;19.80;;;15.00;;
17424;SDS011;8830;50.978;5.058;2022-10-31T09:53:12;23.90;;;15.83;;
17424;SDS011;8830;50.978;5.058;2022-10-31T09:58:52;19.00;;;15.20;;
17424;SDS011;8830;50.978;5.058;2022-10-31T10:01:39;19.97;;;14.53;;
17424;SDS011;8830;50.978;5.058;2022-10-31T10:10:05;18.03;;;15.03;;
17424;SDS011;8830;50.978;5.058;2022-10-31T10:19:45;20.17;;;15.70;;
17424;SDS011;8830;50.978;5.058;2022-10-31T10:22:36;18.40;;;14.73;;
17424;SDS011;8830;50.978;5.058;2022-10-31T10:25:20;23.60;;;15.53;;
17424;SDS011;8830;50.978;5.058;2022-10-31T10:28:04;17.77;;;15.47;;
17424;SDS011;8830;50.978;5.058;2022-10-31T10:30:40;17.30;;;15.53;;
17424;SDS011;8830;50.978;5.058;2022-10-31T10:33:19;19.27;;;14.00;;
17424;SDS011;8830;50.978;5.058;2022-10-31T10:36:03;24.73;;;15.50;;
17424;SDS011;8830;50.978;5.058;2022-10-31T10:38:51;20.90;;;15.03;;
17424;SDS011;8830;50.978;5.058;2022-10-31T10:41:49;21.90;;;15.23;;
17424;SDS011;8830;50.978;5.058;2022-10-31T10:44:39;24.43;;;15.77;;
17424;SDS011;8830;50.978;5.058;2022-10-31T10:47:30;25.47;;;16.30;;
17424;SDS011;8830;50.978;5.058;2022-10-31T10:53:06;21.23;;;16.03;;
17424;SDS011;8830;50.978;5.058;2022-10-31T10:55:50;20.73;;;16.47;;
17424;SDS011;8830;50.978;5.058;2022-10-31T10:58:45;19.50;;;14.60;;
17424;SDS011;8830;50.978;5.058;2022-10-31T11:01:14;17.80;;;15.87;;
17424;SDS011;8830;50.978;5.058;2022-10-31T11:03:50;20.20;;;16.07;;
17424;SDS011;8830;50.978;5.058;2022-10-31T11:06:55;25.07;;;16.53;;
17424;SDS011;8830;50.978;5.058;2022-10-31T11:13:03;25.60;;;17.20;;
17424;SDS011;8830;50.978;5.058;2022-10-31T11:16:04;24.23;;;16.53;;
17424;SDS011;8830;50.978;5.058;2022-10-31T11:18:49;24.37;;;16.60;;
17424;SDS011;8830;50.978;5.058;2022-10-31T11:21:36;25.67;;;16.00;;
17424;SDS011;8830;50.978;5.058;2022-10-31T11:24:38;24.07;;;16.97;;
17424;SDS011;8830;50.978;5.058;2022-10-31T11:27:19;24.97;;;16.50;;
17424;SDS011;8830;50.978;5.058;2022-10-31T11:33:01;19.27;;;15.40;;
17424;SDS011;8830;50.978;5.058;2022-10-31T11:35:52;26.40;;;15.93;;
17424;SDS011;8830;50.978;5.058;2022-10-31T11:38:39;18.43;;;15.40;;
17424;SDS011;8830;50.978;5.058;2022-10-31T11:41:14;21.77;;;15.43;;
17424;SDS011;8830;50.978;5.058;2022-10-31T11:44:24;16.20;;;14.50;;
17424;SDS011;8830;50.978;5.058;2022-10-31T11:46:59;22.97;;;14.00;;
17424;SDS011;8830;50.978;5.058;2022-10-31T11:49:40;17.20;;;13.40;;
17424;SDS011;8830;50.978;5.058;2022-10-31T11:52:12;24.50;;;14.17;;
17424;SDS011;8830;50.978;5.058;2022-10-31T11:54:46;14.03;;;12.20;;
17424;SDS011;8830;50.978;5.058;2022-10-31T11:57:22;17.37;;;12.37;;
17424;SDS011;8830;50.978;5.058;2022-10-31T11:59:54;21.97;;;13.07;;
17424;SDS011;8830;50.978;5.058;2022-10-31T12:02:23;17.13;;;12.07;;
17424;SDS011;8830;50.978;5.058;2022-10-31T12:04:54;19.33;;;11.83;;
17424;SDS011;8830;50.978;5.058;2022-10-31T12:07:28;17.20;;;11.80;;
17424;SDS011;8830;50.978;5.058;2022-10-31T12:09:57;16.67;;;10.47;;
17424;SDS011;8830;50.978;5.058;2022-10-31T12:12:32;16.40;;;10.60;;
17424;SDS011;8830;50.978;5.058;2022-10-31T12:15:18;13.23;;;11.40;;
17424;SDS011;8830;50.978;5.058;2022-10-31T12:17:58;13.37;;;10.73;;
17424;SDS011;8830;50.978;5.058;2022-10-31T12:23:13;16.13;;;10.50;;
17424;SDS011;8830;50.978;5.058;2022-10-31T12:25:52;14.33;;;9.60;;
17424;SDS011;8830;50.978;5.058;2022-10-31T12:31:28;16.73;;;10.13;;
17424;SDS011;8830;50.978;5.058;2022-10-31T12:34:15;16.53;;;9.30;;
17424;SDS011;8830;50.978;5.058;2022-10-31T12:37:10;16.20;;;8.83;;
17424;SDS011;8830;50.978;5.058;2022-10-31T12:40:12;17.67;;;8.60;;
17424;SDS011;8830;50.978;5.058;2022-10-31T12:43:14;12.27;;;8.73;;
17424;SDS011;8830;50.978;5.058;2022-10-31T12:45:55;12.57;;;9.20;;
17424;SDS011;8830;50.978;5.058;2022-10-31T12:48:31;14.23;;;9.83;;
17424;SDS011;8830;50.978;5.058;2022-10-31T12:51:20;15.40;;;8.80;;
17424;SDS011;8830;50.978;5.058;2022-10-31T12:54:01;21.80;;;9.90;;
17424;SDS011;8830;50.978;5.058;2022-10-31T12:56:42;14.37;;;8.57;;
17424;SDS011;8830;50.978;5.058;2022-10-31T12:59:16;11.53;;;8.57;;
17424;SDS011;8830;50.978;5.058;2022-10-31T13:01:48;14.80;;;8.47;;
17424;SDS011;8830;50.978;5.058;2022-10-31T13:04:21;12.27;;;8.23;;
17424;SDS011;8830;50.978;5.058;2022-10-31T13:07:03;15.80;;;8.43;;
17424;SDS011;8830;50.978;5.058;2022-10-31T13:09:33;13.57;;;8.70;;
17424;SDS011;8830;50.978;5.058;2022-10-31T13:12:07;13.10;;;8.83;;
17424;SDS011;8830;50.978;5.058;2022-10-31T13:14:38;14.80;;;9.20;;
17424;SDS011;8830;50.978;5.058;2022-10-31T13:17:08;13.23;;;8.33;;
17424;SDS011;8830;50.978;5.058;2022-10-31T13:19:45;14.23;;;7.97;;
17424;SDS011;8830;50.978;5.058;2022-10-31T13:22:15;18.50;;;8.20;;
17424;SDS011;8830;50.978;5.058;2022-10-31T13:24:47;11.80;;;8.33;;
17424;SDS011;8830;50.978;5.058;2022-10-31T13:27:22;14.10;;;7.63;;
17424;SDS011;8830;50.978;5.058;2022-10-31T13:29:56;12.47;;;8.00;;
17424;SDS011;8830;50.978;5.058;2022-10-31T13:32:29;15.23;;;8.17;;
17424;SDS011;8830;50.978;5.058;2022-10-31T13:35:10;12.43;;;7.67;;
17424;SDS011;8830;50.978;5.058;2022-10-31T13:37:44;9.90;;;7.13;;
17424;SDS011;8830;50.978;5.058;2022-10-31T13:40:19;15.33;;;8.50;;
17424;SDS011;8830;50.978;5.058;2022-10-31T13:42:57;10.70;;;8.27;;
17424;SDS011;8830;50.978;5.058;2022-10-31T13:45:32;19.40;;;8.90;;
17424;SDS011;8830;50.978;5.058;2022-10-31T13:48:01;10.73;;;8.73;;
17424;SDS011;8830;50.978;5.058;2022-10-31T13:50:56;13.93;;;7.67;;
17424;SDS011;8830;50.978;5.058;2022-10-31T13:53:35;14.10;;;8.10;;
17424;SDS011;8830;50.978;5.058;2022-10-31T13:56:13;12.20;;;8.23;;
17424;SDS011;8830;50.978;5.058;2022-10-31T13:58:55;12.40;;;8.10;;
17424;SDS011;8830;50.978;5.058;2022-10-31T14:01:26;16.00;;;8.23;;
17424;SDS011;8830;50.978;5.058;2022-10-31T14:03:56;11.50;;;8.23;;
17424;SDS011;8830;50.978;5.058;2022-10-31T14:06:38;13.67;;;7.73;;
17424;SDS011;8830;50.978;5.058;2022-10-31T14:12:04;14.73;;;8.20;;
17424;SDS011;8830;50.978;5.058;2022-10-31T14:15:20;11.17;;;8.30;;
17424;SDS011;8830;50.978;5.058;2022-10-31T14:18:56;14.00;;;8.80;;
17424;SDS011;8830;50.978;5.058;2022-10-31T14:22:37;16.73;;;8.50;;
17424;SDS011;8830;50.978;5.058;2022-10-31T14:28:33;13.27;;;9.50;;
17424;SDS011;8830;50.978;5.058;2022-10-31T14:35:01;14.93;;;8.77;;
17424;SDS011;8830;50.978;5.058;2022-10-31T16:37:25;19.77;;;9.17;;
17424;SDS011;8830;50.978;5.058;2022-10-31T16:43:36;15.13;;;8.67;;
17424;SDS011;8830;50.978;5.058;2022-10-31T17:37:34;11.30;;;5.03;;
17424;SDS011;8830;50.978;5.058;2022-10-31T17:40:45;10.57;;;5.00;;
17424;SDS011;8830;50.978;5.058;2022-10-31T17:50:02;16.00;;;5.23;;
17424;SDS011;8830;50.978;5.058;2022-10-31T18:40:46;10.73;;;5.10;;
17424;SDS011;8830;50.978;5.058;2022-10-31T18:44:21;12.07;;;5.57;;
17424;SDS011;8830;50.978;5.058;2022-10-31T18:47:13;7.33;;;5.50;;
17424;SDS011;8830;50.978;5.058;2022-10-31T19:01:12;8.23;;;5.80;;
17424;SDS011;8830;50.978;5.058;2022-10-31T19:11:31;10.20;;;6.43;;
17424;SDS011;8830;50.978;5.058;2022-10-31T19:51:23;9.83;;;6.57;;
17424;SDS011;8830;50.978;5.058;2022-10-31T19:54:18;12.43;;;6.93;;
17424;SDS011;8830;50.978;5.058;2022-10-31T19:57:35;9.80;;;6.47;;
17424;SDS011;8830;50.978;5.058;2022-10-31T20:01:25;16.60;;;6.50;;
17424;SDS011;8830;50.978;5.058;2022-10-31T20:07:36;10.27;;;5.97;;
17424;SDS011;8830;50.978;5.058;2022-10-31T20:27:17;11.27;;;5.40;;
17424;SDS011;8830;50.978;5.058;2022-10-31T20:33:42;7.13;;;4.73;;
17424;SDS011;8830;50.978;5.058;2022-10-31T20:36:25;9.50;;;4.87;;
17424;SDS011;8830;50.978;5.058;2022-10-31T21:13:50;11.67;;;5.77;;
17424;SDS011;8830;50.978;5.058;2022-10-31T22:57:17;8.97;;;4.60;;
17424;SDS011;8830;50.978;5.058;2022-10-31T23:00:49;8.47;;;4.33;;
17424;SDS011;8830;50.978;5.058;2022-10-31T23:13:45;8.93;;;4.37;;
17424;SDS011;8830;50.978;5.058;2022-10-31T23:24:01;7.37;;;3.80;;
17424;SDS011;8830;50.978;5.058;2022-10-31T23:47:27;7.87;;;3.97;;
17424;SDS011;8830;50.978;5.058;2022-10-31T23:50:38;6.17;;;3.53;;
17424;SDS011;8830;50.978;5.058;2022-10-31T23:57:04;5.73;;;3.70;;
